This is the latest recevied weather packets stored in our database for station/object DL1NER. If no packets are shown the sender has not sent any weather packets the latest 10 day(s).
| Time | Temp. | Humidity | Pressure | Rain* | Wind** | Luminosity | Snow |
|---|---|---|---|---|---|---|---|
| 1777618211 | 9.44° C | 49% | 1029.4 hPa | 0 mm | - | 0 W/m² | - |
| 1777617611 | 8.33° C | 50% | 1029.3 hPa | 0 mm | - | 0 W/m² | - |
| 1777617011 | 7.78° C | 51% | 1029.2 hPa | 0 mm | - | 0 W/m² | - |
| 1777616411 | 6.67° C | 53% | 1029.3 hPa | 0 mm | - | 0 W/m² | - |
| 1777615811 | 6.11° C | 54% | 1029.3 hPa | 0 mm | - | 0 W/m² | - |
| 1777614611 | 5° C | 57% | 1029.5 hPa | 0 mm | - | 0 W/m² | - |
| 1777614011 | 3.89° C | 60% | 1029.5 hPa | 0 mm | - | 0 W/m² | - |
| 1777613410 | 3.33° C | 65% | 1029.4 hPa | 0 mm | - | 0 W/m² | - |
| 1777612810 | 2.78° C | 67% | 1029.3 hPa | 0 mm | - | 0 W/m² | - |
| 1777612210 | 2.22° C | 69% | 1029.2 hPa | 0 mm | - | 0 W/m² | - |
| 1777611610 | 1.67° C | 70% | 1029.1 hPa | 0 mm | - | 0 W/m² | - |
| 1777611010 | 1.67° C | 70% | 1029.1 hPa | 0 mm | - | 0 W/m² | - |
| 1777610410 | 1.11° C | 69% | 1029 hPa | 0 mm | - | 0 W/m² | - |
| 1777609810 | 1.11° C | 69% | 1029 hPa | 0 mm | - | 0 W/m² | - |
| 1777609211 | 1.11° C | 68% | 1029 hPa | 0 mm | - | 0 W/m² | - |
| 1777608610 | 1.67° C | 68% | 1028.8 hPa | 0 mm | - | 0 W/m² | - |
| 1777608011 | 1.67° C | 68% | 1028.8 hPa | 0 mm | - | 0 W/m² | - |
| 1777607410 | 1.67° C | 67% | 1028.7 hPa | 0 mm | - | 0 W/m² | - |
| 1777606810 | 1.67° C | 66% | 1028.6 hPa | 0 mm | - | 0 W/m² | - |
| 1777606210 | 1.67° C | 66% | 1028.8 hPa | 0 mm | - | 0 W/m² | - |
| 1777605610 | 1.67° C | 66% | 1028.8 hPa | 0 mm | - | 0 W/m² | - |
| 1777605010 | 2.22° C | 66% | 1028.9 hPa | 0 mm | - | 0 W/m² | - |
| 1777604410 | 2.22° C | 66% | 1028.9 hPa | 0 mm | - | 0 W/m² | - |
| 1777603810 | 2.22° C | 65% | 1028.9 hPa | 0 mm | - | 0 W/m² | - |
| 1777603210 | 2.22° C | 64% | 1028.8 hPa | 0 mm | - | 0 W/m² | - |
* Rain latest hour (hover to see other rain measurements)
** Current wind speed in m/s (hover to see current wind gust speed)